Terminal Aerodrome Forecast
Issued by NWS

Home | Current Version | Previous Version | Text Only | Print | Product List | Glossary On
Versions: 1 2 3 4 5 6 7 8 9 10 11 12 13 14 15
830
FTPA31 PHFO 061120
TAFHNY
TAF
PHNY 061120Z 0612/0712 VRB05KT P6SM FEW020 BKN045
     FM062000 30010KT P6SM SCT020 BKN035
     FM070100 03015KT P6SM VCSH SCT020 BKN035
     FM070500 03019G28KT P6SM VCSH SCT015 BKN035
      AMD NOT SKED=

USA.gov is the U.S. government's official web portal to all federal, state and local government web resources and services.